Nearby METAR Reports

 

KCPC - Whiteville, North Carolina, USA
Distance from station: NNE 17mi, 28km
Updated: 07/11/2020 11:35pm
Clear
Clear
 Wind from calm
Wind: Calm
Temperature: 79°F , 26°C
Dew Point: 77°F , 25°C
Humidity: 94%
Barometer: 29.85 inHg , 1010.8 hPa
Clouds: Clear
Visibility: 10 miles , 16 km
2020/07/12 03:35 KCPC 120335Z AUTO 00000KT 10SM CLR 26/25 A2985 RMK AO2 T02610248
KCRE - North Myrtle Bea, South Carolina, USA
Distance from station: SSE 19mi, 31km
Updated: 07/11/2020 10:53pm
Clear
Clear
 Wind from calm
Wind: Calm
Temperature: 81°F , 27°C
Heat Index: 88°F , 31°C
Dew Point: 77°F , 25°C
Humidity: 89%
Barometer: 29.86 inHg , 1011.2 hPa
Clouds: Clear
Visibility: 10 miles , 16 km
2020/07/12 02:53 KCRE 120253Z AUTO 00000KT 10SM CLR 27/25 A2986 RMK AO1 SLP112 T02720250 51014
 
KHYW - Conway-Horry Cty, South Carolina, USA
Distance from station: SW 22mi, 35km
Updated: 07/11/2020 11:35pm
Clear
Clear
 Wind from calm
Wind: Calm
Temperature: 75°F , 24°C
Dew Point: 73°F , 23°C
Humidity: 94%
Barometer: 29.86 inHg , 1011.2 hPa
Clouds: Clear
Visibility: 10 miles , 16 km
2020/07/12 03:35 KHYW 120335Z AUTO 00000KT 10SM CLR 24/23 A2986 RMK AO2
KMAO - Marion, South Carolina, USA
Distance from station: WNW 28mi, 45km
Updated: 07/11/2020 11:35pm
Clear
Clear
 Wind from calm
Wind: Calm
Temperature: 77°F , 25°C
Dew Point: 75°F , 24°C
Humidity: 94%
Barometer: 29.87 inHg , 1011.5 hPa
Clouds: Clear
Visibility: 10 miles , 16 km
2020/07/12 03:35 KMAO 120335Z AUTO 00000KT 10SM CLR 25/24 A2987 RMK AO2
 
KMYR - Myrtle Beach, South Carolina, USA
Distance from station: S 28mi, 45km
Updated: 07/11/2020 10:56pm
Clear
Clear
 Wind from calm
Wind: Calm
Temperature: 81°F , 27°C
Heat Index: 88°F , 31°C
Dew Point: 77°F , 25°C
Humidity: 89%
Barometer: 29.87 inHg , 1011.5 hPa
Clouds: Clear
Visibility: 10 miles , 16 km
2020/07/12 02:56 KMYR 120256Z AUTO 00000KT 10SM CLR 27/25 A2987 RMK AO2 SLP114 T02720250 51016
KLBT - Lumberton, North Carolina, USA
Distance from station: NNW 39mi, 62km
Updated: 03/28/2019 9:55am
NOT Current

 
2019/03/28 13:55 KLBT 281355Z MKT MSM M M M M A0000 M M RMK TEST
 
KSUT - Southport, North Carolina, USA
Distance from station: E 46mi, 74km
Updated: 07/11/2020 11:55pm
Mostly cloudy
Mostly cloudy
 Wind from SSW
Wind: SSW 9 mph , 15 km/h
Temperature: 84°F , 29°C
Heat Index: 96°F , 36°C
Dew Point: 79°F , 26°C
Humidity: 84%
Barometer: 29.87 inHg , 1011.5 hPa
Clouds: Mostly cloudy
Visibility: 10 miles , 16 km
Cloud details: Partly cloudy 1400 ft
Mostly cloudy 2300 ft
Mostly cloudy 2800 ft
2020/07/12 03:55 KSUT 120355Z AUTO 21008KT 10SM SCT014 BKN023 BKN028 29/26 A2987 RMK AO2 T02850262
KFLO - Florence, South Carolina, USA
Distance from station: W 50mi, 81km
Updated: 07/11/2020 10:53pm
Clear
Clear
 Wind from calm
Wind: Calm
Temperature: 81°F , 27°C
Heat Index: 87°F , 31°C
Dew Point: 75°F , 24°C
Humidity: 84%
Barometer: 29.87 inHg , 1011.5 hPa
Clouds: Clear
Visibility: 10 miles , 16 km
2020/07/12 02:53 KFLO 120253Z AUTO 00000KT 10SM CLR 27/24 A2987 RMK AO2 SLP111 T02670239 53017